CheckWX is a tool to help pilots better visualize weather data.  It is not intended as a substitute for an official pre-flight weather briefing.

20:29:19 UTC

BKPR TAF
Priština International Airport
Prishtina, Kosovo
TAF BKPR 251730Z 2518/2618 36013KT 9999 SCT040 PROB30 TEMPO 2518/2520 TS SCT030CB TEMPO 2612/2618 VRB15G25KT 5000 -TSRA FEW030CB

Jun-25@
18:00 UTC

Jun-25 @ 18:00 UTC

Jun-26@
18:00 UTC

Jun-26 @ 18:00 UTC

TAF BKPR 251730Z 2518/2618 36013KT 9999 SCT040
Wind
  • 360° at 13 KTS
Cloud Levels
  • Scattered at 4,000' AGL

Jun-25@
18:00 UTC

Jun-25 @ 18:00 UTC

Jun-25@
20:00 UTC

Jun-25 @ 20:00 UTC

PROB30 TEMPO 2518/2520 TS SCT030CB

Expired

Conditions
Thunderstorm
Cloud Levels
  • Scattered at 3,000' AGL

Jun-26@
12:00 UTC

Jun-26 @ 12:00 UTC

Jun-26@
18:00 UTC

Jun-26 @ 18:00 UTC

TEMPO 2612/2618 VRB15G25KT 5000 -TSRA FEW030CB

Temporary

Temporary Changes expected for less than half the time period

Wind
  • Variable at 15 KTS
  • {Gusting to 25 KTS
Conditions
Light Thunderstorm, Light Rain
Cloud Levels
  • Few at 3,000' AGL